National Weather Service United States Department of Commerce


544
FTPA31 PHFO 240542
TAFSTU
TAF
NSTU 240542Z 2406/2506 09010KT P6SM VCSH SCT020 SCT040 BKN200=


298
SAZS31 NSTU 240600
MTRPPG
METAR NSTU 240550Z VRB02KT 10SM FEW016 28/26 A2987 RMK SLP115 8/100
T02770255 10311 20277 51020=


METAR Formatted Surface Weather Observation  Issued: 05/23/2018 07:00:35 PM SST

NSTU Observation History

 

Significant Weather Charts